Kansas City, Missouri
Traffic Map
Current Weather Conditions
Kansas City, Missouri
Scattered Clouds
Scattered Clouds
72°
Feels Like: 72°
Wind Chill: 72° Ceiling: Unl
Heat Index: 72° Visibility: 10mi
Dew Point: 69° Wind: 5mph
Humidity: 91% Direction: 70° (ENE)
Pressure: 30.14in Gusts: 0mph
Raw Report DataKMKC 301054Z 07004KT 10SM SCT120 22/21 A3014 RMK AO2 SLP199 T02220206
Traffic Incident Summary
Active as of:
Severity:
Category:
InformationThere was an issue retrieving the traffic information for this location. Please try a different location or try again shortly.
Advertisements
Track Severe Weather on mobile